Airfield :
LOGIN :

Register | Disclaimer

   EN    FR    IT 

 










Legend :    VFR   Marginal VFR   IFR   Intensive IFR   Very Intensive IFR
Visi :
Ceiling :
>= 8 km
>= 3000ft
5 to 8 km
1000 to 3000 ft
1500m to 5 km
500 to 1000 ft
800 to 1500m
200 to 500 ft
< 800m
< 200 ft
Symbols :   Thunderstorms  Fog  Heavy snow  Heavy precipitations  Wind > 20 kt
SIGMETs :     Misc.  Thunderstorms  Icing  Turbulence  Mountain Waves  Volcanic Ashes







- Airport Elevation : 909 ft
- IATA code : KSF


EDVK - Kassel Calden

CURRENT METAR :
  • 231750Z 10009KT 9999 SCT032 08/05 Q1019

EXPIRED METARs :
  • 231720Z 09007KT 9999 FEW030 09/05 Q1018
  • 231650Z 07009KT 9999 FEW032 10/05 Q1018
  • 231620Z 09008KT 9999 FEW030 11/05 Q1018
  • 231550Z 10008KT 9999 FEW030 11/04 Q1017
  • 231520Z 08007KT 050V130 9999 FEW030 12/05 Q1017

TAF TAF EDVK
Valid from the 23 at 18:00 until the 24 at 01:00 UTC


231700Z 2318/2401 09007KT 9999 FEW040
No reported NOTAMs for that airfield.



MET'MAP, your aeronautical weather chart ! - Copyright ORBIFLY December 2007 - Disclaimer

ORBIFLY MET'MAP TEAM :

Programming & Development : Alexandra Zaïnal
Concept & Development : Baudouin d'Aumeries
Co-Development & Prog : Marc-Olivier Méhu
Technical & hardware support : Manuel Goepfert

Contact : metmap@orbifly.com




SOURCES & CREDITS :

   NOAA